Time;durP1;ratioP1;P1;durP2;ratioP2;P2;SDS_P1;SDS_P2;PMS_P1;PMS_P2;Temp;Humidity;BMP_temperature;BMP_pressure;BME280_temperature;BME280_humidity;BME280_pressure;Samples;Min_cycle;Max_cycle;Signal;HPM_P1;HPM_P2
2021/01/02 00:03:01;;;;;;;39.05;22.27;;;4.70;99.90;;;;;;4957578;29;20488;-93
2021/01/02 00:05:54;;;;;;;;;;;;;;;;;;;;;
2021/01/02 00:08:24;;;;;;;47.45;23.80;;;4.70;99.90;;;;;;4957392;28;20042;-93
2021/01/02 00:11:18;;;;;;;54.28;27.25;;;4.60;99.90;;;;;;4957561;28;20392;-91
2021/01/02 00:14:21;;;;;;;48.42;27.13;;;4.60;99.90;;;;;;4940294;29;20055;-93
2021/01/02 00:17:21;;;;;;;50.78;26.38;;;4.60;99.90;;;;;;4936909;29;20154;-94
2021/01/02 00:20:08;;;;;;;47.75;25.17;;;4.60;99.90;;;;;;4940909;29;20538;-93
2021/01/02 00:23:01;;;;;;;48.70;25.55;;;4.60;99.90;;;;;;4939768;29;20491;-93
2021/01/02 00:25:39;;;;;;;48.40;25.85;;;4.60;99.90;;;;;;4939989;29;20031;-91
2021/01/02 00:32:10;;;;;;;50.10;26.42;;;4.60;99.90;;;;;;4952470;29;20039;-91
2021/01/02 00:35:02;;;;;;;47.65;26.52;;;4.60;99.90;;;;;;4939343;29;20505;-92
2021/01/02 00:45:15;;;;;;;47.33;25.55;;;4.60;99.90;;;;;;4917276;29;20071;-92
2021/01/02 00:48:05;;;;;;;47.78;25.08;;;4.60;99.90;;;;;;4901068;29;20544;-92
2021/01/02 00:53:40;;;;;;;55.53;29.20;;;4.50;99.90;;;;;;4951076;29;20028;-91
2021/01/02 00:56:25;;;;;;;53.35;29.55;;;4.50;99.90;;;;;;4939829;29;20043;-92
2021/01/02 00:59:41;;;;;;;56.30;30.10;;;4.50;99.90;;;;;;4957167;29;20044;-91
2021/01/02 01:05:47;;;;;;;51.97;28.70;;;4.50;99.90;;;;;;4937119;29;20114;-91
2021/01/02 01:08:33;;;;;;;52.00;28.38;;;4.50;99.90;;;;;;4955555;29;20476;-91
2021/01/02 01:11:13;;;;;;;52.35;27.98;;;4.50;99.90;;;;;;4924463;29;20403;-92
2021/01/02 01:13:57;;;;;;;51.78;29.88;;;4.50;99.90;;;;;;4955835;29;20504;-91
2021/01/02 01:16:50;;;;;;;55.92;29.83;;;4.50;99.90;;;;;;4939418;29;20035;-92
2021/01/02 01:19:28;;;;;;;50.95;29.33;;;4.50;99.90;;;;;;4939075;29;20044;-92
2021/01/02 01:22:12;;;;;;;56.72;29.45;;;4.50;99.90;;;;;;4955934;29;20035;-91
2021/01/02 01:25:08;;;;;;;54.80;29.50;;;4.50;99.90;;;;;;4925579;29;20397;-90
2021/01/02 01:28:06;;;;;;;55.80;30.50;;;4.40;99.90;;;;;;4927864;28;20054;-91
2021/01/02 01:31:04;;;;;;;60.45;32.45;;;4.40;99.90;;;;;;4952614;28;20030;-93
2021/01/02 01:34:02;;;;;;;54.97;30.40;;;4.40;99.90;;;;;;4967886;28;20130;-92
2021/01/02 01:37:29;;;;;;;52.20;29.20;;;4.40;99.90;;;;;;4941534;29;20032;-92
2021/01/02 01:40:08;;;;;;;;;;;;;;;;;;;;;
2021/01/02 01:43:30;;;;;;;51.40;29.35;;;4.30;99.90;;;;;;4900354;29;20045;-92
2021/01/02 01:46:24;;;;;;;50.83;27.48;;;4.40;99.90;;;;;;4899894;29;20081;-92
2021/01/02 01:52:57;;;;;;;45.30;25.40;;;4.30;99.90;;;;;;4936363;29;20044;-92
2021/01/02 01:55:33;;;;;;;46.53;25.75;;;4.40;99.90;;;;;;4946059;28;20041;-91
2021/01/02 01:58:19;;;;;;;53.88;29.85;;;4.40;99.90;;;;;;4948077;29;20038;-92
2021/01/02 02:01:11;;;;;;;50.55;29.90;;;4.30;99.90;;;;;;4952351;28;20487;-91
2021/01/02 02:04:04;;;;;;;48.63;27.20;;;4.30;99.90;;;;;;4991076;28;20606;-93
2021/01/02 02:07:22;;;;;;;47.95;27.80;;;4.30;99.90;;;;;;4977918;28;20055;-92
2021/01/02 02:10:03;;;;;;;43.00;25.70;;;4.30;99.90;;;;;;4975453;28;20069;-91
2021/01/02 02:12:52;;;;;;;46.35;26.08;;;4.30;99.90;;;;;;4976288;28;20117;-92
2021/01/02 02:15:41;;;;;;;43.22;24.73;;;4.30;99.90;;;;;;4959889;28;20098;-92
2021/01/02 02:18:44;;;;;;;41.20;22.88;;;4.30;99.90;;;;;;4977209;28;20550;-92
2021/01/02 02:21:36;;;;;;;50.33;28.80;;;4.30;99.90;;;;;;4966821;28;20046;-91
2021/01/02 02:24:08;;;;;;;51.92;30.27;;;4.30;99.90;;;;;;4964810;28;20030;-91
2021/01/02 02:27:00;;;;;;;52.72;30.35;;;4.30;99.90;;;;;;4959547;28;20046;-92
2021/01/02 02:29:38;;;;;;;53.65;32.10;;;4.30;99.90;;;;;;4958889;28;20664;-91
2021/01/02 02:32:10;;;;;;;55.15;30.73;;;4.30;99.90;;;;;;4962202;28;20118;-91
2021/01/02 02:34:48;;;;;;;57.70;32.45;;;4.30;99.90;;;;;;4977615;28;20047;-91
2021/01/02 02:37:28;;;;;;;;;;;;;;;;;;;;;
2021/01/02 02:40:23;;;;;;;53.20;29.75;;;4.20;99.90;;;;;;4995575;28;20026;-91
2021/01/02 02:43:21;;;;;;;;;;;;;;;;;;;;;
2021/01/02 02:46:20;;;;;;;53.25;31.60;;;4.30;99.90;;;;;;4976789;28;20033;-90
2021/01/02 02:52:00;;;;;;;55.58;31.85;;;4.20;99.90;;;;;;4996287;28;20046;-90
2021/01/02 02:54:39;;;;;;;52.53;31.50;;;4.20;99.90;;;;;;4995115;28;20053;-91
2021/01/02 02:57:35;;;;;;;51.13;31.15;;;4.20;99.90;;;;;;4960724;28;20510;-91
2021/01/02 03:00:12;;;;;;;53.25;33.17;;;4.20;99.90;;;;;;4975522;28;20051;-91
2021/01/02 03:02:54;;;;;;;56.13;31.83;;;4.10;99.90;;;;;;4959735;28;20038;-93
2021/01/02 03:05:38;;;;;;;53.20;32.25;;;4.10;99.90;;;;;;4973855;28;20479;-93
2021/01/02 03:08:09;;;;;;;53.25;32.25;;;4.10;99.90;;;;;;4995155;28;20042;-91
2021/01/02 03:10:52;;;;;;;;;;;;;;;;;;;;;
2021/01/02 03:16:25;;;;;;;47.05;28.05;;;4.10;99.90;;;;;;4993466;28;20030;-91
2021/01/02 03:19:14;;;;;;;53.70;32.80;;;4.10;99.90;;;;;;4979191;28;20047;-92
2021/01/02 03:34:46;;;;;;;55.00;33.25;;;4.10;99.90;;;;;;5110750;27;20416;-84
2021/01/02 03:37:12;;;;;;;53.15;32.65;;;4.00;99.90;;;;;;5109333;28;20436;-84
2021/01/02 03:39:37;;;;;;;56.92;33.50;;;4.00;99.90;;;;;;5109503;28;20056;-83
2021/01/02 03:42:03;;;;;;;55.05;34.80;;;4.10;99.90;;;;;;5110579;28;20099;-84
2021/01/02 03:44:29;;;;;;;52.90;33.05;;;4.10;99.90;;;;;;5110954;28;20084;-85
2021/01/02 03:46:56;;;;;;;50.38;29.58;;;4.00;99.90;;;;;;5110826;28;20027;-85
2021/01/02 03:49:21;;;;;;;51.15;30.80;;;4.10;99.90;;;;;;5109408;28;20023;-85
2021/01/02 03:51:47;;;;;;;48.10;29.88;;;4.10;99.90;;;;;;5110188;28;20437;-87
2021/01/02 03:54:12;;;;;;;41.35;25.98;;;4.00;99.90;;;;;;5110572;28;20058;-86
2021/01/02 03:56:38;;;;;;;48.30;29.70;;;4.10;99.90;;;;;;5108842;28;20028;-86
2021/01/02 03:59:03;;;;;;;53.65;34.85;;;4.10;99.90;;;;;;5110159;28;20142;-85
2021/01/02 04:01:29;;;;;;;56.13;32.88;;;4.10;99.90;;;;;;5110121;28;20032;-85
2021/01/02 04:03:54;;;;;;;54.85;32.75;;;4.10;99.90;;;;;;5108909;28;20064;-86
2021/01/02 04:06:24;;;;;;;52.85;33.75;;;4.10;99.90;;;;;;5109945;28;20039;-86
2021/01/02 04:08:50;;;;;;;48.22;30.38;;;4.00;99.90;;;;;;5110000;28;20106;-86
2021/01/02 04:11:15;;;;;;;48.50;30.50;;;4.00;99.90;;;;;;5110082;28;20047;-86
2021/01/02 04:13:41;;;;;;;51.72;30.70;;;4.00;99.90;;;;;;5109791;28;20020;-86
2021/01/02 04:16:06;;;;;;;49.10;31.00;;;4.00;99.90;;;;;;5108634;28;20035;-86
2021/01/02 04:18:33;;;;;;;46.85;30.17;;;4.00;99.90;;;;;;5108395;28;20024;-85
2021/01/02 04:20:58;;;;;;;45.72;28.52;;;4.00;99.90;;;;;;5108748;28;20062;-86
2021/01/02 04:23:24;;;;;;;48.58;31.48;;;4.10;99.90;;;;;;5108407;28;20436;-86
2021/01/02 04:25:50;;;;;;;51.40;31.15;;;4.10;99.90;;;;;;5108283;28;20008;-86
2021/01/02 04:28:16;;;;;;;53.70;33.88;;;4.10;99.90;;;;;;5108621;28;20348;-86
2021/01/02 04:30:41;;;;;;;52.80;31.80;;;4.10;99.90;;;;;;5108794;28;20020;-87
2021/01/02 04:33:07;;;;;;;51.60;33.28;;;4.10;99.90;;;;;;5108347;28;20486;-86
2021/01/02 04:35:32;;;;;;;52.15;30.83;;;4.00;99.90;;;;;;5096153;28;20032;-85
2021/01/02 04:38:01;;;;;;;49.15;31.33;;;4.10;99.90;;;;;;5094810;28;20020;-85
2021/01/02 04:40:26;;;;;;;49.20;30.55;;;4.10;99.90;;;;;;5095176;28;20032;-86
2021/01/02 04:42:52;;;;;;;49.47;30.88;;;4.10;99.90;;;;;;5094842;28;20032;-85
2021/01/02 04:45:20;;;;;;;51.38;33.08;;;4.10;99.90;;;;;;5095275;28;20024;-86
2021/01/02 04:47:48;;;;;;;57.88;35.60;;;4.10;99.90;;;;;;5095360;28;20032;-86
2021/01/02 04:50:13;;;;;;;49.83;32.80;;;4.00;99.90;;;;;;5095064;28;20482;-86
2021/01/02 04:52:40;;;;;;;50.92;33.30;;;4.00;99.90;;;;;;5095002;28;20077;-86
2021/01/02 04:55:08;;;;;;;57.20;36.65;;;4.00;99.90;;;;;;5095078;28;20512;-85
2021/01/02 04:57:38;;;;;;;54.65;35.55;;;4.00;99.90;;;;;;5077682;28;20024;-85
2021/01/02 05:00:09;;;;;;;62.17;39.33;;;4.00;99.90;;;;;;5095069;28;20050;-84
2021/01/02 05:02:36;;;;;;;57.35;37.33;;;3.90;99.90;;;;;;5090170;28;20043;-86
2021/01/02 05:05:04;;;;;;;57.25;35.45;;;3.90;99.90;;;;;;5094601;28;20032;-85
2021/01/02 05:07:30;;;;;;;51.60;32.13;;;3.90;99.90;;;;;;5094513;28;20436;-85
2021/01/02 05:09:57;;;;;;;52.55;33.13;;;3.90;99.90;;;;;;5095423;28;20063;-84
2021/01/02 05:12:28;;;;;;;52.88;32.83;;;3.90;99.90;;;;;;5096646;28;20024;-85
2021/01/02 05:15:05;;;;;;;56.20;35.55;;;3.90;99.90;;;;;;5095481;28;20043;-86
2021/01/02 05:17:31;;;;;;;60.47;35.85;;;3.90;99.90;;;;;;5096760;28;20028;-85
2021/01/02 05:20:04;;;;;;;47.60;31.23;;;3.90;99.90;;;;;;5094615;28;20020;-85
2021/01/02 05:22:30;;;;;;;;;;;3.90;99.90;;;;;;5095763;28;20112;-84
2021/01/02 05:25:16;;;;;;;53.92;34.72;;;3.80;99.90;;;;;;5093478;28;19951;-84
2021/01/02 05:27:47;;;;;;;55.85;35.13;;;3.80;99.90;;;;;;5095024;28;20020;-84
2021/01/02 05:30:17;;;;;;;59.17;35.92;;;3.80;99.90;;;;;;5093718;28;20508;-86
2021/01/02 05:33:03;;;;;;;62.90;37.85;;;3.80;99.90;;;;;;5094744;28;20046;-85
2021/01/02 05:35:44;;;;;;;63.70;35.85;;;3.80;99.90;;;;;;5093891;28;20255;-85
2021/01/02 05:38:15;;;;;;;60.90;37.28;;;3.80;99.90;;;;;;5093706;28;20040;-84
2021/01/02 05:40:55;;;;;;;56.97;35.45;;;3.80;99.90;;;;;;5093697;28;20028;-86
2021/01/02 05:43:25;;;;;;;66.00;39.22;;;3.80;99.90;;;;;;5093285;28;20055;-85
2021/01/02 05:45:51;;;;;;;67.80;40.28;;;3.70;99.90;;;;;;5093979;28;20056;-85
2021/01/02 05:48:21;;;;;;;65.20;39.63;;;3.70;99.90;;;;;;5094706;28;20093;-85
2021/01/02 05:50:58;;;;;;;60.88;36.38;;;3.70;99.90;;;;;;5093197;28;20492;-86
2021/01/02 05:53:34;;;;;;;64.10;38.20;;;3.70;99.90;;;;;;5093236;28;20031;-86
2021/01/02 05:56:04;;;;;;;66.53;39.70;;;3.70;99.90;;;;;;5093520;28;20016;-85
2021/01/02 05:58:51;;;;;;;60.90;37.92;;;3.70;99.90;;;;;;5093294;28;20024;-85
2021/01/02 06:01:20;;;;;;;66.82;39.22;;;3.70;99.90;;;;;;5093781;28;20107;-86
2021/01/02 06:03:47;;;;;;;64.28;39.20;;;3.70;99.90;;;;;;5094553;28;20067;-85
2021/01/02 06:06:18;;;;;;;64.22;38.05;;;3.70;99.90;;;;;;5093121;28;20381;-86
2021/01/02 06:08:44;;;;;;;63.22;37.28;;;3.70;99.90;;;;;;5092800;28;20050;-85
2021/01/02 06:11:15;;;;;;;68.63;39.28;;;3.70;99.90;;;;;;5093021;28;20056;-85
2021/01/02 06:13:44;;;;;;;63.55;37.00;;;3.70;99.90;;;;;;5092921;28;20119;-86
2021/01/02 06:16:10;;;;;;;64.05;36.05;;;3.70;99.90;;;;;;5093917;28;20028;-85
2021/01/02 06:18:40;;;;;;;61.17;34.88;;;3.70;99.90;;;;;;5092598;28;20464;-85
2021/01/02 06:21:12;;;;;;;63.38;38.15;;;3.70;99.90;;;;;;5093772;28;20016;-85
2021/01/02 06:23:39;;;;;;;72.68;42.30;;;3.70;99.90;;;;;;5092500;28;20394;-85
2021/01/02 06:26:07;;;;;;;72.30;41.45;;;3.70;99.90;;;;;;5094057;28;20031;-86
2021/01/02 06:28:35;;;;;;;71.28;41.25;;;3.70;99.90;;;;;;5093109;28;20023;-86
2021/01/02 06:31:03;;;;;;;71.03;40.35;;;3.70;99.90;;;;;;5092691;28;20028;-86
2021/01/02 06:33:29;;;;;;;66.07;39.72;;;3.70;99.90;;;;;;5093685;28;20111;-84
2021/01/02 06:35:55;;;;;;;69.32;40.97;;;3.60;99.90;;;;;;5092831;28;20107;-85
2021/01/02 06:38:22;;;;;;;74.38;41.70;;;3.70;99.90;;;;;;5092615;28;20016;-85
2021/01/02 06:40:49;;;;;;;76.50;41.70;;;3.60;99.90;;;;;;5093895;28;20045;-87
2021/01/02 06:43:17;;;;;;;73.15;40.95;;;3.60;99.90;;;;;;5092094;28;20036;-86
2021/01/02 06:45:48;;;;;;;67.28;37.97;;;3.60;99.90;;;;;;5092544;28;20017;-86
2021/01/02 06:48:23;;;;;;;74.95;41.80;;;3.60;99.90;;;;;;5092424;28;20370;-85
2021/01/02 06:50:51;;;;;;;66.85;37.90;;;3.60;99.90;;;;;;5092036;28;20024;-85
2021/01/02 06:53:31;;;;;;;73.10;42.20;;;3.60;99.90;;;;;;5092169;28;20456;-85
2021/01/02 06:56:10;;;;;;;77.57;43.53;;;3.60;99.90;;;;;;5093551;28;20066;-85
2021/01/02 06:58:49;;;;;;;72.50;40.22;;;3.60;99.90;;;;;;5091684;28;20032;-85
2021/01/02 07:01:15;;;;;;;65.90;37.17;;;3.60;99.90;;;;;;5091816;28;20031;-85
2021/01/02 07:03:41;;;;;;;75.93;41.58;;;3.60;99.90;;;;;;5091689;28;20036;-85
2021/01/02 07:06:24;;;;;;;73.75;39.58;;;3.60;99.90;;;;;;5092135;28;20054;-85
2021/01/02 07:08:51;;;;;;;;;;;3.70;99.90;;;;;;5093702;28;20488;-86
2021/01/02 07:11:27;;;;;;;77.88;42.40;;;3.70;99.90;;;;;;5093105;28;19904;-85
2021/01/02 07:14:17;;;;;;;72.88;42.08;;;3.60;99.90;;;;;;5091996;28;20037;-85
2021/01/02 07:17:02;;;;;;;73.15;40.08;;;3.60;99.90;;;;;;5091977;28;20111;-85
2021/01/02 07:19:32;;;;;;;70.75;40.13;;;3.60;99.90;;;;;;5091764;28;20028;-85
2021/01/02 07:22:00;;;;;;;68.35;40.38;;;3.60;99.90;;;;;;5092835;28;20551;-85
2021/01/02 07:24:30;;;;;;;66.30;36.97;;;3.70;99.90;;;;;;5092190;28;20032;-85
2021/01/02 07:27:19;;;;;;;67.40;39.00;;;3.70;99.90;;;;;;5092010;28;20027;-85
2021/01/02 07:29:53;;;;;;;73.78;40.60;;;3.70;99.90;;;;;;5092231;28;20024;-85
2021/01/02 07:32:23;;;;;;;82.55;43.25;;;3.60;99.90;;;;;;5091690;28;20143;-85
2021/01/02 07:34:53;;;;;;;81.68;43.65;;;3.60;99.90;;;;;;5093026;28;20477;-86
2021/01/02 07:37:31;;;;;;;85.13;45.40;;;3.60;99.90;;;;;;5092220;28;20032;-86
2021/01/02 07:40:06;;;;;;;71.43;40.97;;;3.60;99.90;;;;;;5092116;28;20023;-84
2021/01/02 07:42:37;;;;;;;70.97;36.83;;;3.60;99.90;;;;;;5092998;28;20051;-85
2021/01/02 07:45:10;;;;;;;69.50;37.03;;;3.60;99.90;;;;;;5091995;28;20031;-84
2021/01/02 07:47:48;;;;;;;74.57;41.33;;;3.60;99.90;;;;;;5093594;28;20031;-85
2021/01/02 07:50:16;;;;;;;75.00;39.72;;;3.60;99.90;;;;;;5092172;28;20031;-86
2021/01/02 07:52:52;;;;;;;73.13;39.72;;;3.60;99.90;;;;;;5092043;28;20020;-86
2021/01/02 07:55:25;;;;;;;82.40;44.83;;;3.60;99.90;;;;;;5094119;28;20024;-84
2021/01/02 07:57:51;;;;;;;78.03;42.38;;;3.60;99.90;;;;;;5101365;28;20019;-85
2021/01/02 08:00:18;;;;;;;97.63;49.88;;;3.60;99.90;;;;;;5116144;28;20020;-85
2021/01/02 08:02:43;;;;;;;91.22;46.35;;;3.60;99.90;;;;;;5115066;28;20052;-85
2021/01/02 08:05:14;;;;;;;83.95;44.83;;;3.60;99.90;;;;;;5106378;28;20062;-84
2021/01/02 08:07:42;;;;;;;88.88;44.35;;;3.60;99.90;;;;;;5099323;28;20028;-83
2021/01/02 08:10:12;;;;;;;79.13;41.28;;;3.60;99.90;;;;;;5100324;28;20466;-85
2021/01/02 08:12:45;;;;;;;78.13;42.10;;;3.60;99.90;;;;;;5094536;28;20027;-84
2021/01/02 08:15:11;;;;;;;83.17;42.53;;;3.60;99.90;;;;;;5093213;28;20051;-83
2021/01/02 08:17:41;;;;;;;95.80;47.58;;;3.60;99.90;;;;;;5093608;28;20348;-84
2021/01/02 08:20:08;;;;;;;87.00;44.92;;;3.60;99.90;;;;;;5089679;28;20032;-84
2021/01/02 08:22:38;;;;;;;83.57;43.40;;;3.60;99.90;;;;;;5091346;28;20611;-85
2021/01/02 08:25:10;;;;;;;86.07;44.53;;;3.70;99.90;;;;;;5092621;28;20486;-85
2021/01/02 08:27:36;;;;;;;74.00;36.97;;;3.60;99.90;;;;;;5090713;28;20027;-85
2021/01/02 08:30:06;;;;;;;97.72;47.85;;;3.70;99.90;;;;;;5093127;28;20023;-86
2021/01/02 08:32:34;;;;;;;100.20;47.97;;;3.70;99.90;;;;;;5092722;28;20095;-83
2021/01/02 08:35:00;;;;;;;96.03;46.30;;;3.70;99.90;;;;;;5093335;28;20036;-83
2021/01/02 08:37:26;;;;;;;81.38;41.55;;;3.60;99.90;;;;;;5093217;28;20031;-85
2021/01/02 08:40:10;;;;;;;102.78;45.65;;;3.70;99.90;;;;;;5091999;28;20016;-85
2021/01/02 08:42:40;;;;;;;103.90;48.63;;;3.70;99.90;;;;;;5089549;28;20517;-84
2021/01/02 08:45:10;;;;;;;93.55;47.47;;;3.60;99.90;;;;;;5092673;28;20024;-84
2021/01/02 08:47:38;;;;;;;91.22;43.72;;;3.60;99.90;;;;;;5092144;28;20081;-85
2021/01/02 08:50:14;;;;;;;97.30;45.45;;;3.60;99.90;;;;;;5093157;28;20016;-86
2021/01/02 08:52:40;;;;;;;89.78;42.90;;;3.60;99.90;;;;;;5089211;28;20028;-85
2021/01/02 08:55:16;;;;;;;88.40;41.47;;;3.60;99.90;;;;;;5093107;28;20016;-86
2021/01/02 08:57:45;;;;;;;91.00;41.45;;;3.60;99.90;;;;;;5089374;28;20382;-86
2021/01/02 09:00:24;;;;;;;92.20;43.63;;;3.70;99.90;;;;;;5092878;28;20024;-91
2021/01/02 09:03:03;;;;;;;87.03;43.58;;;3.70;99.90;;;;;;5091126;28;20060;-85
2021/01/02 09:05:40;;;;;;;98.40;45.20;;;3.70;99.90;;;;;;5090788;28;20046;-84
2021/01/02 09:08:08;;;;;;;84.18;42.90;;;3.70;99.90;;;;;;5083932;28;20363;-88
2021/01/02 09:10:35;;;;;;;92.05;42.85;;;3.70;99.90;;;;;;5092087;28;20083;-86
2021/01/02 09:13:09;;;;;;;88.18;43.45;;;3.80;99.90;;;;;;5090503;28;20028;-84
2021/01/02 09:16:13;;;;;;;88.70;42.92;;;3.70;99.90;;;;;;5089360;28;20028;-83
2021/01/02 09:18:41;;;;;;;100.85;46.08;;;3.80;99.90;;;;;;5089876;28;20028;-83
2021/01/02 09:21:10;;;;;;;99.20;43.97;;;3.70;99.90;;;;;;5086771;28;20016;-83
2021/01/02 09:23:41;;;;;;;82.32;40.63;;;3.70;99.90;;;;;;5091016;28;20043;-83
2021/01/02 09:26:21;;;;;;;88.28;41.35;;;3.80;99.90;;;;;;5086825;28;20584;-84
2021/01/02 09:28:48;;;;;;;94.38;46.17;;;3.80;99.90;;;;;;5091022;28;20031;-83
2021/01/02 09:31:14;;;;;;;103.93;49.40;;;3.80;99.90;;;;;;5089901;28;20020;-84
2021/01/02 09:33:40;;;;;;;98.82;47.08;;;3.80;99.90;;;;;;5091040;28;20063;-83
2021/01/02 09:36:06;;;;;;;98.20;46.67;;;3.80;99.90;;;;;;5089941;28;20016;-84
2021/01/02 09:38:31;;;;;;;92.93;44.95;;;3.80;99.90;;;;;;5089478;28;20442;-84
2021/01/02 09:40:58;;;;;;;94.88;44.90;;;3.80;99.90;;;;;;5090183;28;20028;-84
2021/01/02 09:43:24;;;;;;;83.55;40.55;;;3.80;99.90;;;;;;5090029;28;20024;-83
2021/01/02 09:45:50;;;;;;;87.28;40.55;;;3.80;99.90;;;;;;5090577;28;20142;-83
2021/01/02 09:48:17;;;;;;;86.55;41.17;;;3.80;99.90;;;;;;5089691;28;20039;-85
2021/01/02 09:50:43;;;;;;;89.13;41.38;;;3.90;99.90;;;;;;5090120;28;20154;-84
2021/01/02 09:53:10;;;;;;;87.10;40.17;;;3.80;99.90;;;;;;5089601;28;20501;-87
2021/01/02 09:55:36;;;;;;;87.45;40.58;;;3.80;99.90;;;;;;5090934;28;20024;-86
2021/01/02 09:58:03;;;;;;;79.88;37.80;;;3.80;99.90;;;;;;5092462;28;20028;-83
2021/01/02 10:00:28;;;;;;;86.47;39.72;;;3.80;99.90;;;;;;5089853;28;20027;-86
2021/01/02 10:02:54;;;;;;;99.97;46.03;;;3.80;99.90;;;;;;5089713;28;20032;-85
2021/01/02 10:05:21;;;;;;;93.68;41.28;;;3.80;99.90;;;;;;5090669;28;20032;-83
2021/01/02 10:07:47;;;;;;;88.53;41.55;;;3.80;99.90;;;;;;5090555;28;20089;-85
2021/01/02 10:10:15;;;;;;;86.97;41.72;;;3.70;99.90;;;;;;5089447;28;20028;-83
2021/01/02 10:12:42;;;;;;;97.22;44.45;;;3.80;99.90;;;;;;5090832;28;20085;-84
2021/01/02 10:15:08;;;;;;;95.28;44.42;;;3.70;99.90;;;;;;5090958;28;20020;-84
2021/01/02 10:17:34;;;;;;;89.90;41.47;;;3.80;99.90;;;;;;5090014;28;20034;-84
2021/01/02 10:20:00;;;;;;;86.90;40.00;;;3.80;99.90;;;;;;5090325;28;20103;-84
2021/01/02 10:22:26;;;;;;;84.28;39.92;;;3.80;99.90;;;;;;5090091;28;20077;-84
2021/01/02 10:24:52;;;;;;;81.60;38.80;;;3.80;99.90;;;;;;5088963;28;20032;-83
2021/01/02 10:27:19;;;;;;;93.22;45.30;;;3.80;99.90;;;;;;5089345;28;20428;-84
2021/01/02 10:29:47;;;;;;;98.90;45.92;;;3.90;99.90;;;;;;5088916;28;20028;-83
2021/01/02 10:32:14;;;;;;;96.10;42.45;;;3.90;99.90;;;;;;5089972;28;20040;-83
2021/01/02 10:34:41;;;;;;;91.60;42.63;;;3.90;99.90;;;;;;5088621;28;20057;-82
2021/01/02 10:37:07;;;;;;;89.28;41.13;;;3.90;99.90;;;;;;5088733;28;20020;-83
2021/01/02 10:39:36;;;;;;;86.97;41.75;;;3.90;99.90;;;;;;5089914;28;20036;-82
2021/01/02 10:42:02;;;;;;;93.13;43.47;;;3.90;99.90;;;;;;5088616;28;20052;-83
2021/01/02 10:44:27;;;;;;;88.03;41.60;;;4.00;99.90;;;;;;5089323;28;20082;-85
2021/01/02 10:46:53;;;;;;;90.05;40.15;;;4.00;99.90;;;;;;5089994;28;20028;-84
2021/01/02 10:49:21;;;;;;;85.80;39.05;;;4.00;99.90;;;;;;5088446;28;20022;-84
2021/01/02 10:51:48;;;;;;;80.82;38.70;;;4.00;99.90;;;;;;5089447;28;20024;-85
2021/01/02 10:54:16;;;;;;;90.57;43.20;;;4.10;99.90;;;;;;5088718;28;20020;-84
2021/01/02 10:56:59;;;;;;;95.07;42.22;;;4.00;99.90;;;;;;5090338;28;20060;-84
2021/01/02 10:59:25;;;;;;;;;;;4.10;99.90;;;;;;5088769;28;20016;-82
2021/01/02 11:01:52;;;;;;;97.47;46.58;;;4.00;99.90;;;;;;5089592;28;20415;-84
2021/01/02 11:04:20;;;;;;;100.80;46.33;;;4.00;99.90;;;;;;5090736;28;20052;-82
2021/01/02 11:06:49;;;;;;;97.80;44.08;;;4.00;99.90;;;;;;5089089;28;20020;-83
2021/01/02 11:09:15;;;;;;;101.40;47.00;;;4.10;99.90;;;;;;5089489;28;20032;-83
2021/01/02 11:11:41;;;;;;;86.97;43.70;;;4.10;99.90;;;;;;5087913;28;20043;-84
2021/01/02 11:14:07;;;;;;;91.82;46.00;;;4.20;99.90;;;;;;5070468;28;20603;-85
2021/01/02 11:16:37;;;;;;;93.57;43.58;;;4.20;99.90;;;;;;5087544;28;20034;-83
2021/01/02 11:19:20;;;;;;;87.80;40.95;;;4.20;99.90;;;;;;5089142;28;20020;-82
2021/01/02 11:21:47;;;;;;;85.95;40.95;;;4.20;99.90;;;;;;5087999;28;20020;-83
2021/01/02 11:24:14;;;;;;;81.45;38.97;;;4.20;99.90;;;;;;5087476;28;20040;-84
2021/01/02 11:26:44;;;;;;;78.78;37.63;;;4.20;99.90;;;;;;5088914;28;20060;-83
2021/01/02 11:29:10;;;;;;;90.60;42.65;;;4.20;99.90;;;;;;5088848;28;20448;-83
2021/01/02 11:31:36;;;;;;;86.70;40.45;;;4.20;99.90;;;;;;5087385;28;20024;-83
2021/01/02 11:34:04;;;;;;;85.40;39.22;;;4.20;99.90;;;;;;5087247;28;20132;-82
2021/01/02 11:36:30;;;;;;;85.03;39.70;;;4.20;99.90;;;;;;5088446;28;20502;-84
2021/01/02 11:38:55;;;;;;;81.57;37.10;;;4.30;99.90;;;;;;5087676;28;20031;-83
2021/01/02 11:41:34;;;;;;;71.60;33.90;;;4.30;99.90;;;;;;5088834;28;20031;-83
2021/01/02 11:44:00;;;;;;;80.55;38.47;;;4.30;99.90;;;;;;5087515;28;20127;-81
2021/01/02 11:46:35;;;;;;;81.88;37.85;;;4.30;99.90;;;;;;5092204;28;20124;-82
2021/01/02 11:49:00;;;;;;;74.95;36.30;;;4.30;99.90;;;;;;5094042;28;20063;-82
2021/01/02 11:51:26;;;;;;;88.70;39.85;;;4.40;99.90;;;;;;5091276;28;20048;-83
2021/01/02 11:53:52;;;;;;;80.75;38.63;;;4.30;99.90;;;;;;5092638;28;20024;-84
2021/01/02 11:56:22;;;;;;;86.90;39.63;;;4.30;99.90;;;;;;5078691;28;20099;-82
2021/01/02 11:58:49;;;;;;;88.85;39.17;;;4.30;99.90;;;;;;5086068;28;20028;-83
2021/01/02 12:01:15;;;;;;;73.65;34.80;;;4.30;99.90;;;;;;5088131;28;20019;-84
2021/01/02 12:03:40;;;;;;;75.25;35.33;;;4.20;99.90;;;;;;5091321;28;20044;-82
2021/01/02 12:06:06;;;;;;;73.20;36.00;;;4.20;99.90;;;;;;5088627;28;20032;-83
2021/01/02 12:08:31;;;;;;;65.72;33.20;;;4.20;99.90;;;;;;5089515;28;20034;-82
2021/01/02 12:10:57;;;;;;;74.03;34.47;;;4.20;99.90;;;;;;5086533;28;20030;-82
2021/01/02 12:13:22;;;;;;;74.88;35.85;;;4.30;99.90;;;;;;5086840;28;20074;-83
2021/01/02 12:15:50;;;;;;;78.72;36.45;;;4.30;99.90;;;;;;5087045;28;20020;-83
2021/01/02 12:18:15;;;;;;;69.97;35.28;;;4.30;99.90;;;;;;5087118;28;20035;-83
2021/01/02 12:20:41;;;;;;;73.53;36.10;;;4.30;99.90;;;;;;5089061;28;20028;-87
2021/01/02 12:23:06;;;;;;;67.85;31.77;;;4.30;99.90;;;;;;5089495;28;20024;-85
2021/01/02 12:25:32;;;;;;;65.70;33.22;;;4.30;99.90;;;;;;5089831;28;20497;-83
2021/01/02 12:27:59;;;;;;;68.82;33.42;;;4.30;99.90;;;;;;5088348;28;20032;-84
2021/01/02 12:30:28;;;;;;;63.33;30.50;;;4.30;99.90;;;;;;5088639;28;20028;-85
2021/01/02 12:32:55;;;;;;;67.45;32.03;;;4.30;99.90;;;;;;5090651;28;20492;-84
2021/01/02 12:35:21;;;;;;;72.80;34.92;;;4.40;99.90;;;;;;5098554;28;20107;-81
2021/01/02 12:37:47;;;;;;;75.10;35.78;;;4.30;99.90;;;;;;5112284;28;20066;-84
2021/01/02 12:40:13;;;;;;;71.50;35.17;;;4.30;99.90;;;;;;5113538;28;20008;-84
2021/01/02 12:42:39;;;;;;;73.40;33.38;;;4.30;99.90;;;;;;5112617;28;20051;-82
2021/01/02 12:45:07;;;;;;;81.15;36.33;;;4.40;99.90;;;;;;5107085;28;20020;-81
2021/01/02 12:47:33;;;;;;;85.75;38.85;;;4.40;99.90;;;;;;5100679;28;20020;-83
2021/01/02 12:49:59;;;;;;;81.82;38.45;;;4.20;99.90;;;;;;5091734;28;20039;-83
2021/01/02 12:52:28;;;;;;;78.00;36.83;;;4.20;99.90;;;;;;5091648;28;20020;-84
2021/01/02 12:54:53;;;;;;;65.05;31.42;;;4.20;99.90;;;;;;5091170;28;20024;-85
2021/01/02 12:57:19;;;;;;;65.63;31.55;;;4.20;99.90;;;;;;5092037;28;20027;-85
2021/01/02 12:59:44;;;;;;;63.95;31.80;;;4.20;99.90;;;;;;5090121;28;20111;-84
2021/01/02 13:02:11;;;;;;;78.20;33.85;;;4.20;99.90;;;;;;5088250;28;20047;-83
2021/01/02 13:04:38;;;;;;;75.90;34.25;;;4.20;99.90;;;;;;5088362;28;20032;-84
2021/01/02 13:07:08;;;;;;;69.22;33.30;;;4.20;99.90;;;;;;5089469;28;20023;-84
2021/01/02 13:09:34;;;;;;;65.55;30.13;;;4.20;99.90;;;;;;5089632;28;20024;-84
2021/01/02 13:12:00;;;;;;;65.57;30.45;;;4.20;99.90;;;;;;5088380;28;20025;-84
2021/01/02 13:14:29;;;;;;;77.15;33.28;;;4.30;99.90;;;;;;5087588;28;20441;-84
2021/01/02 13:17:01;;;;;;;73.28;34.22;;;4.30;99.90;;;;;;5088559;28;20024;-81
2021/01/02 13:19:27;;;;;;;68.50;30.92;;;4.30;99.90;;;;;;5081948;28;20016;-82
2021/01/02 13:21:55;;;;;;;65.95;30.92;;;4.30;99.90;;;;;;5086415;28;20031;-82
2021/01/02 13:24:22;;;;;;;62.45;27.92;;;4.30;99.90;;;;;;5087042;28;20035;-81
2021/01/02 13:27:03;;;;;;;69.80;32.28;;;4.30;99.90;;;;;;5085295;28;20111;-83
2021/01/02 13:29:31;;;;;;;75.88;34.10;;;4.30;99.90;;;;;;5086805;28;20024;-82
2021/01/02 13:31:58;;;;;;;75.88;34.33;;;4.30;99.90;;;;;;5086792;28;20122;-84
2021/01/02 13:34:24;;;;;;;72.97;32.80;;;4.40;99.90;;;;;;5088100;28;20693;-82
2021/01/02 13:36:51;;;;;;;75.03;36.28;;;4.40;99.90;;;;;;5086042;28;20035;-82
2021/01/02 13:39:22;;;;;;;80.68;35.92;;;4.40;99.90;;;;;;5087810;28;20028;-86
2021/01/02 13:41:48;;;;;;;77.05;34.47;;;4.30;99.90;;;;;;5078474;28;20016;-82
2021/01/02 13:44:14;;;;;;;75.15;32.42;;;4.30;99.90;;;;;;5089014;28;20530;-84
2021/01/02 13:46:39;;;;;;;70.40;32.72;;;4.30;99.90;;;;;;5088644;28;20127;-82
2021/01/02 13:49:05;;;;;;;67.78;30.77;;;4.30;99.90;;;;;;5084861;28;20024;-83
2021/01/02 13:51:31;;;;;;;65.45;30.60;;;4.40;99.90;;;;;;5088613;28;20047;-86
2021/01/02 13:53:57;;;;;;;60.70;28.70;;;4.30;99.90;;;;;;5086071;28;20046;-82